createdAt,value
2022-10-23T00:05:45.162Z,10.25
2022-10-23T00:11:48.158Z,10.48
2022-10-23T00:17:50.319Z,11.88
2022-10-23T00:23:52.493Z,17.23
2022-10-23T00:29:54.416Z,10.48
2022-10-23T00:35:56.307Z,11.43
2022-10-23T00:41:58.250Z,9.20
2022-10-23T00:48:01.790Z,11.50
2022-10-23T00:54:23.864Z,9.85
2022-10-23T01:00:41.473Z,13.63
2022-10-23T01:06:58.379Z,16.02
2022-10-23T01:13:14.975Z,10.55
2022-10-23T01:19:46.590Z,10.57
2022-10-23T01:25:54.415Z,14.30
2022-10-23T01:32:09.646Z,20.15
2022-10-23T01:38:17.442Z,13.25
2022-10-23T01:44:49.110Z,15.80
2022-10-23T01:50:53.260Z,10.90
2022-10-23T01:56:58.183Z,9.05
2022-10-23T02:03:04.614Z,14.63
2022-10-23T02:09:09.059Z,16.88
2022-10-23T02:15:35.915Z,18.02
2022-10-23T02:21:58.077Z,17.77
2022-10-23T02:28:05.062Z,12.30
2022-10-23T02:34:15.042Z,18.48
2022-10-23T02:40:17.037Z,17.55
2022-10-23T02:46:42.817Z,18.90
2022-10-23T02:53:12.701Z,17.50
2022-10-23T02:59:31.164Z,26.13
2022-10-23T03:05:38.075Z,14.77
2022-10-23T03:11:39.967Z,23.13
2022-10-23T03:17:42.133Z,17.05
2022-10-23T03:23:44.096Z,18.38
2022-10-23T03:29:51.247Z,11.80
2022-10-23T03:35:54.105Z,14.27
2022-10-23T03:41:56.065Z,17.83
2022-10-23T03:47:58.558Z,25.83
2022-10-23T03:54:00.666Z,20.80
2022-10-23T04:00:03.474Z,24.88
2022-10-23T04:06:07.878Z,25.63
2022-10-23T04:12:09.744Z,11.73
2022-10-23T04:18:11.688Z,14.05
2022-10-23T04:24:13.621Z,17.23
2022-10-23T04:30:15.547Z,21.13
2022-10-23T04:36:18.519Z,19.25
2022-10-23T04:42:20.376Z,17.05
2022-10-23T04:48:25.576Z,18.52
2022-10-23T04:54:48.632Z,20.48
2022-10-23T05:01:14.488Z,20.23
2022-10-23T05:07:16.968Z,18.73
2022-10-23T05:13:41.474Z,24.48
2022-10-23T05:19:52.639Z,16.73
2022-10-23T05:25:55.799Z,21.52
2022-10-23T05:32:02.823Z,17.40
2022-10-23T05:38:07.311Z,15.75
2022-10-23T05:44:09.460Z,16.25
2022-10-23T05:50:29.818Z,17.17
2022-10-23T05:56:52.423Z,14.43
2022-10-23T06:02:58.991Z,21.20
2022-10-23T06:09:16.455Z,17.83
2022-10-23T06:15:19.214Z,18.55
2022-10-23T06:21:47.396Z,20.77
2022-10-23T06:27:51.316Z,22.50
2022-10-23T06:33:54.301Z,21.60
2022-10-23T06:39:56.258Z,25.17
2022-10-23T06:46:10.873Z,23.92
2022-10-23T06:52:47.894Z,19.33
2022-10-23T06:58:52.628Z,22.35
2022-10-23T07:04:55.073Z,22.42
2022-10-23T07:10:57.156Z,15.38
2022-10-23T07:16:59.561Z,20.10
2022-10-23T07:23:02.963Z,16.40
2022-10-23T07:41:25.656Z,14.32
2022-10-23T07:47:28.006Z,11.80
2022-10-23T07:53:30.021Z,14.68
2022-10-23T07:59:55.101Z,7.28
2022-10-23T08:05:59.706Z,7.43
2022-10-23T08:12:02.268Z,9.15
2022-10-23T08:18:04.296Z,14.68
2022-10-23T08:24:14.287Z,9.98
2022-10-23T08:30:20.066Z,9.98
2022-10-23T08:36:24.012Z,9.10
2022-10-23T08:42:27.507Z,12.35
2022-10-23T08:48:44.135Z,9.85
2022-10-23T08:55:40.672Z,10.35
2022-10-23T09:01:55.977Z,8.73
2022-10-23T09:08:19.759Z,5.68
2022-10-23T09:14:43.422Z,8.73
2022-10-23T09:20:47.014Z,8.52
2022-10-23T09:26:53.131Z,4.57
2022-10-23T09:32:55.115Z,9.70
2022-10-23T09:38:59.506Z,6.10
2022-10-23T09:45:01.839Z,8.07
2022-10-23T09:51:18.907Z,7.72
2022-10-23T09:57:27.667Z,5.80
2022-10-23T10:03:29.788Z,4.13
2022-10-23T10:09:39.030Z,7.57
2022-10-23T10:15:50.727Z,6.03
2022-10-23T10:22:21.688Z,6.07
2022-10-23T10:28:30.577Z,6.22
2022-10-23T10:35:22.852Z,5.50
2022-10-23T10:41:53.051Z,10.52
2022-10-23T10:48:11.483Z,5.55
2022-10-23T10:55:03.477Z,11.23
2022-10-23T11:01:26.590Z,7.35
2022-10-23T11:07:35.104Z,6.82
2022-10-23T11:13:40.473Z,4.20
2022-10-23T11:19:51.106Z,4.72
2022-10-23T11:26:25.835Z,4.63
2022-10-23T11:32:52.605Z,3.92
2022-10-23T11:39:00.302Z,5.32
2022-10-23T11:45:02.208Z,5.78
2022-10-23T11:51:05.603Z,3.55
2022-10-23T11:57:10.371Z,5.82
2022-10-23T12:03:29.439Z,3.50
2022-10-23T12:10:00.180Z,7.28
2022-10-23T12:16:02.360Z,4.28
2022-10-23T12:22:04.199Z,3.88
2022-10-23T12:28:23.325Z,5.57
2022-10-23T12:34:58.144Z,9.13
2022-10-23T12:41:13.101Z,8.70
2022-10-23T12:47:21.466Z,4.47
2022-10-23T12:53:24.154Z,14.05
2022-10-23T12:59:36.314Z,5.03
2022-10-23T13:05:38.646Z,5.07
2022-10-23T13:11:40.666Z,10.02
2022-10-23T13:18:09.759Z,3.10
2022-10-23T13:24:21.335Z,8.00
2022-10-23T13:30:32.538Z,5.85
2022-10-23T13:36:39.545Z,9.27
2022-10-23T13:42:41.691Z,5.00
2022-10-23T13:48:44.097Z,5.68
2022-10-23T13:54:46.109Z,8.27
2022-10-23T14:00:49.780Z,5.78
2022-10-23T14:06:58.277Z,8.57
2022-10-23T14:13:00.092Z,6.88
2022-10-23T14:19:01.969Z,4.10
2022-10-23T14:25:04.458Z,3.92
2022-10-23T14:31:12.019Z,6.05
2022-10-23T14:37:13.844Z,3.40
2022-10-23T14:43:15.691Z,8.40
2022-10-23T14:49:17.588Z,3.78
2022-10-23T14:55:19.554Z,7.68
2022-10-23T15:01:21.540Z,3.53
2022-10-23T15:07:23.519Z,4.82
2022-10-23T15:13:25.314Z,7.97
2022-10-23T15:19:27.202Z,6.38
2022-10-23T15:25:29.097Z,4.63
2022-10-23T15:31:43.045Z,5.85
2022-10-23T15:37:45.144Z,9.98
2022-10-23T15:43:47.258Z,3.33
2022-10-23T15:49:49.109Z,4.63
2022-10-23T15:55:51.041Z,4.88
2022-10-23T16:01:53.370Z,6.97
2022-10-23T16:07:55.313Z,5.65
2022-10-23T16:13:58.830Z,6.43
2022-10-23T16:20:00.689Z,9.20
2022-10-23T16:26:05.981Z,6.72
2022-10-23T16:32:07.816Z,7.10
2022-10-23T16:38:09.753Z,5.13
2022-10-23T16:44:11.655Z,1.98
2022-10-23T16:50:23.819Z,8.85
2022-10-23T16:56:28.888Z,5.30
2022-10-23T17:02:30.793Z,6.47
2022-10-23T17:08:33.214Z,5.35
2022-10-23T17:14:35.094Z,4.53
2022-10-23T17:20:36.972Z,3.20
2022-10-23T17:26:39.724Z,4.97
2022-10-23T17:32:41.878Z,3.53
2022-10-23T17:38:44.692Z,7.38
2022-10-23T17:44:46.586Z,3.15
2022-10-23T17:50:48.433Z,6.72
2022-10-23T17:56:50.360Z,8.20
2022-10-23T18:02:52.492Z,3.00
2022-10-23T18:08:55.407Z,3.75
2022-10-23T18:14:57.248Z,7.65
2022-10-23T18:21:03.011Z,6.45
2022-10-23T18:27:04.920Z,5.38
2022-10-23T18:33:06.848Z,6.03
2022-10-23T18:39:11.821Z,6.47
2022-10-23T18:45:13.891Z,9.30
2022-10-23T18:51:22.043Z,5.90
2022-10-23T18:57:23.883Z,8.77
2022-10-23T19:03:25.753Z,7.40
2022-10-23T19:09:27.743Z,6.15
2022-10-23T19:15:30.185Z,8.18
2022-10-23T19:21:36.850Z,8.13
2022-10-23T19:27:40.526Z,6.38
2022-10-23T19:33:42.404Z,3.78
2022-10-23T19:39:44.216Z,3.30
2022-10-23T19:45:46.109Z,7.70
2022-10-23T19:51:51.296Z,9.60
2022-10-23T19:57:53.572Z,6.50
2022-10-23T20:03:55.654Z,6.55
2022-10-23T20:09:57.743Z,6.55
2022-10-23T20:15:59.647Z,5.28
2022-10-23T20:22:01.517Z,5.82
2022-10-23T20:28:03.880Z,6.90
2022-10-23T20:34:07.322Z,5.78
2022-10-23T20:40:09.730Z,5.55
2022-10-23T20:46:12.362Z,7.68
2022-10-23T20:52:14.518Z,9.50
2022-10-23T20:58:16.725Z,8.25
2022-10-23T21:04:21.429Z,5.93
2022-10-23T21:10:23.521Z,7.68
2022-10-23T21:16:28.639Z,7.68
2022-10-23T21:22:31.179Z,9.48
2022-10-23T21:28:33.967Z,6.95
2022-10-23T21:34:36.278Z,6.15
2022-10-23T21:40:41.155Z,16.17
2022-10-23T21:46:44.300Z,11.98
2022-10-23T21:52:51.659Z,8.20
2022-10-23T21:58:54.046Z,18.13
2022-10-23T22:04:56.622Z,16.23
2022-10-23T22:10:59.054Z,13.23
2022-10-23T22:17:01.324Z,9.23
2022-10-23T22:23:03.512Z,11.40
2022-10-23T22:29:12.656Z,8.18
2022-10-23T22:35:14.816Z,8.23
2022-10-23T22:41:18.569Z,8.68
2022-10-23T22:47:20.930Z,12.80
2022-10-23T22:53:23.442Z,10.20
2022-10-23T22:59:25.873Z,6.53
2022-10-23T23:05:28.184Z,7.38
2022-10-23T23:11:40.770Z,8.60
2022-10-23T23:17:53.832Z,11.95
2022-10-23T23:23:57.240Z,8.23
2022-10-23T23:29:59.535Z,9.15
2022-10-23T23:36:06.493Z,9.48
2022-10-23T23:42:09.110Z,12.32
2022-10-23T23:48:11.843Z,10.30
2022-10-23T23:54:14.571Z,11.23
